International Virtual Aviation Organisation

Russian Federation and Kazakhstan MCD

 
URKK 270330Z 12003MPS 0050 R05R/0300N FG VV001 00/M00 Q1028 R05R/CLRD70 NOSIG RMK QBB050 OBST OBSC QFE768
QNH:(hPa/inHg/mmHg)1028 / 30.36 / 771
QFE:(hPa/inHg/mmHg)1024 / 30.23 / 768
Temperature0
Dew Point-0
Visibility0050
WeatherFog
Cloud CoverVV (100);
Transition Height900 m./3100 ft.
Transition LevelFL40
SQUAWK